CAT,Max TemperatureF,Mean TemperatureF,Min TemperatureF,Max Dew PointF,MeanDew PointF,Min DewpointF,Max Humidity, Mean Humidity, Min Humidity, Max Sea Level PressureIn, Mean Sea Level PressureIn, Min Sea Level PressureIn, Max VisibilityMiles, Mean VisibilityMiles, Min VisibilityMiles, Max Wind SpeedMPH, Mean Wind SpeedMPH, Max Gust SpeedMPH,PrecipitationIn, CloudCover, Events, WindDirDegrees
2012-12-1,80,80,77,46,44,43,34,26,17,30.09,30.09,30.09,19,19,19,17,17,,0.00,,,140
2012-12-2,86,72,63,57,55,52,77,52,25,30.18,30.16,30.15,19,14,6,12,9,,0.00,6,,120
2012-12-3,90,76,63,57,54,52,38,29,18,30.06,30.02,29.98,19,19,19,5,4,,0.00,,,195
2012-12-4,71,68,68,66,66,65,94,85,76,30.01,30.01,30.01,19,13,6,1,1,,0.00,8,Rain,50
2012-12-5,86,73,66,65,61,58,91,62,37,30.04,30.04,30.04,19,13,3,5,2,,0.00,8,Rain,250
2012-12-6,74,68,66,67,66,66,95,90,87,,,,19,9,3,8,6,,0.00,8,Rain,-1
2012-12-7,86,72,64,67,63,60,88,64,38,30.12,30.08,30.04,19,13,6,4,3,,0.00,4,Rain,240
2012-12-8,84,73,66,68,66,63,100,77,46,30.09,30.07,30.06,19,15,9,1,0,,0.00,,Rain,-1
2012-12-9,87,76,65,65,61,57,74,49,28,30.06,30.02,29.98,19,16,6,16,11,,0.00,6,,100
2012-12-10,75,69,63,64,63,63,94,80,62,29.98,29.97,29.95,19,13,6,6,1,,0.00,6,,50
2012-12-11,80,73,67,65,60,55,88,63,33,30.04,29.98,29.95,19,10,6,8,3,,0.00,7,Rain,20
2012-12-12,77,65,64,62,59,56,82,60,38,,,,19,18,16,14,13,,0.00,,Rain,-1
2012-12-13,74,68,61,61,60,59,92,76,51,30.12,30.09,30.04,16,8,4,14,7,,0.00,7,Rain,113
2012-12-14,84,70,55,55,53,50,88,56,20,30.09,30.07,30.06,19,19,19,9,4,,0.00,,,155
2012-12-15,88,73,59,57,55,53,39,34,25,30.06,30.02,29.98,19,19,19,5,3,,0.00,,,30
2012-12-16,94,78,61,62,57,52,83,46,15,30.04,30.02,29.95,19,19,19,6,2,,0.00,,,213
2012-12-17,80,72,66,64,63,63,86,74,53,29.98,29.98,29.98,19,12,5,6,5,,0.00,7,Rain,150
2012-12-18,83,70,66,63,61,59,78,63,52,30.09,30.07,30.06,19,13,6,9,7,,0.00,6,,140
2012-12-19,82,67,62,58,57,57,62,51,42,30.06,30.06,30.06,19,18,16,6,4,,0.00,,,200
2012-12-20,89,73,58,59,54,48,44,32,25,,,,19,19,19,7,3,,0.00,,,-1
2012-12-21,82,74,65,57,53,51,46,36,24,30.09,30.06,30.04,19,19,19,15,7,,0.00,,,160
2012-12-22,84,70,55,52,49,46,82,38,17,30.06,30.04,30.01,19,15,6,12,3,,0.00,6,,150
2012-12-23,88,72,57,53,49,46,34,26,18,30.06,30.04,30.01,19,19,19,12,3,,0.00,,,190
2012-12-24,90,78,68,57,54,49,64,43,17,30.09,30.06,30.04,19,17,16,14,3,,0.00,,,60
2012-12-25,92,80,72,61,60,59,55,51,48,,,,19,17,16,92,17,,0.00,,,-1
2012-12-26,94,76,62,62,56,50,88,47,16,30.04,30.01,29.98,19,19,19,13,4,,0.00,,,170
2012-12-27,77,73,73,64,64,63,65,64,62,30.04,30.04,30.04,16,11,6,1,0,,0.00,3,,300
2012-12-28,77,72,67,66,65,63,94,69,54,29.98,29.98,29.98,19,19,19,17,5,,0.00,,Rain-Thunderstorm,-1
2012-12-29,87,70,65,65,64,63,94,71,54,30.01,30.01,30.01,19,19,19,2,1,,0.00,,,-1
2012-12-30,73,,66,65,65,65,69,69,69,,,,19,19,19,2,2,,0.00,,,-1
2012-12-31,82,,82,63,63,63,51,51,51,30.04,30.04,30.04,6,6,6,6,6,,0.00,6,,320